sensor_id;sensor_type;location;lat;lon;timestamp;P1;durP1;ratioP1;P2;durP2;ratioP2
44832;SDS011;30569;51.252;9.830;2022-11-13T00:00:26;5.50;;;3.03;;
44832;SDS011;30569;51.252;9.830;2022-11-13T00:02:54;5.67;;;3.03;;
44832;SDS011;30569;51.252;9.830;2022-11-13T00:05:19;4.37;;;2.20;;
44832;SDS011;30569;51.252;9.830;2022-11-13T00:07:45;3.93;;;1.90;;
44832;SDS011;30569;51.252;9.830;2022-11-13T00:10:11;7.50;;;2.73;;
44832;SDS011;30569;51.252;9.830;2022-11-13T00:12:37;3.97;;;2.27;;
44832;SDS011;30569;51.252;9.830;2022-11-13T00:15:03;4.10;;;2.20;;
44832;SDS011;30569;51.252;9.830;2022-11-13T00:17:30;4.27;;;2.23;;
44832;SDS011;30569;51.252;9.830;2022-11-13T00:19:56;4.17;;;2.20;;
44832;SDS011;30569;51.252;9.830;2022-11-13T00:22:21;6.47;;;2.40;;
44832;SDS011;30569;51.252;9.830;2022-11-13T00:24:47;5.27;;;2.53;;
44832;SDS011;30569;51.252;9.830;2022-11-13T00:27:13;4.77;;;2.47;;
44832;SDS011;30569;51.252;9.830;2022-11-13T00:29:39;4.27;;;2.20;;
44832;SDS011;30569;51.252;9.830;2022-11-13T00:32:05;3.60;;;2.00;;
44832;SDS011;30569;51.252;9.830;2022-11-13T00:34:31;3.70;;;2.20;;
44832;SDS011;30569;51.252;9.830;2022-11-13T00:36:57;5.40;;;2.10;;
44832;SDS011;30569;51.252;9.830;2022-11-13T00:39:23;5.07;;;2.27;;
44832;SDS011;30569;51.252;9.830;2022-11-13T00:41:48;4.23;;;2.60;;
44832;SDS011;30569;51.252;9.830;2022-11-13T00:44:14;4.90;;;2.40;;
44832;SDS011;30569;51.252;9.830;2022-11-13T00:46:40;5.17;;;2.20;;
44832;SDS011;30569;51.252;9.830;2022-11-13T00:49:05;4.43;;;2.17;;
44832;SDS011;30569;51.252;9.830;2022-11-13T00:51:31;11.13;;;2.37;;
44832;SDS011;30569;51.252;9.830;2022-11-13T00:53:57;5.23;;;2.67;;
44832;SDS011;30569;51.252;9.830;2022-11-13T00:56:23;4.63;;;2.50;;
44832;SDS011;30569;51.252;9.830;2022-11-13T00:58:48;4.43;;;2.27;;
44832;SDS011;30569;51.252;9.830;2022-11-13T01:01:14;4.47;;;2.43;;
44832;SDS011;30569;51.252;9.830;2022-11-13T01:03:42;5.13;;;2.43;;
44832;SDS011;30569;51.252;9.830;2022-11-13T01:06:13;6.47;;;2.33;;
44832;SDS011;30569;51.252;9.830;2022-11-13T01:08:41;5.63;;;2.42;;
44832;SDS011;30569;51.252;9.830;2022-11-13T01:11:12;5.33;;;2.27;;
44832;SDS011;30569;51.252;9.830;2022-11-13T01:13:46;4.40;;;2.30;;
44832;SDS011;30569;51.252;9.830;2022-11-13T01:16:13;5.00;;;2.43;;
44832;SDS011;30569;51.252;9.830;2022-11-13T01:18:40;6.27;;;2.80;;
44832;SDS011;30569;51.252;9.830;2022-11-13T01:21:27;4.67;;;2.60;;
44832;SDS011;30569;51.252;9.830;2022-11-13T01:23:52;5.17;;;2.23;;
44832;SDS011;30569;51.252;9.830;2022-11-13T01:26:22;5.10;;;2.60;;
44832;SDS011;30569;51.252;9.830;2022-11-13T01:28:49;4.30;;;2.30;;
44832;SDS011;30569;51.252;9.830;2022-11-13T01:31:19;6.60;;;3.63;;
44832;SDS011;30569;51.252;9.830;2022-11-13T01:33:46;6.67;;;4.43;;
44832;SDS011;30569;51.252;9.830;2022-11-13T01:36:14;6.80;;;3.90;;
44832;SDS011;30569;51.252;9.830;2022-11-13T01:38:41;5.60;;;3.07;;
44832;SDS011;30569;51.252;9.830;2022-11-13T01:41:09;5.90;;;2.70;;
44832;SDS011;30569;51.252;9.830;2022-11-13T01:43:41;6.63;;;2.80;;
44832;SDS011;30569;51.252;9.830;2022-11-13T01:46:19;7.43;;;2.80;;
44832;SDS011;30569;51.252;9.830;2022-11-13T01:48:52;6.10;;;2.80;;
44832;SDS011;30569;51.252;9.830;2022-11-13T01:51:26;5.40;;;3.42;;
44832;SDS011;30569;51.252;9.830;2022-11-13T01:53:59;6.90;;;3.30;;
44832;SDS011;30569;51.252;9.830;2022-11-13T01:56:28;7.13;;;3.33;;
44832;SDS011;30569;51.252;9.830;2022-11-13T01:58:57;5.70;;;3.53;;
44832;SDS011;30569;51.252;9.830;2022-11-13T02:01:30;4.53;;;2.97;;
44832;SDS011;30569;51.252;9.830;2022-11-13T02:03:55;5.37;;;3.00;;
44832;SDS011;30569;51.252;9.830;2022-11-13T02:06:21;4.47;;;2.80;;
44832;SDS011;30569;51.252;9.830;2022-11-13T02:08:47;4.77;;;2.73;;
44832;SDS011;30569;51.252;9.830;2022-11-13T02:11:14;6.50;;;3.80;;
44832;SDS011;30569;51.252;9.830;2022-11-13T02:13:39;5.03;;;2.60;;
44832;SDS011;30569;51.252;9.830;2022-11-13T02:16:06;4.97;;;2.67;;
44832;SDS011;30569;51.252;9.830;2022-11-13T02:18:33;5.53;;;2.80;;
44832;SDS011;30569;51.252;9.830;2022-11-13T02:21:05;6.83;;;2.67;;
44832;SDS011;30569;51.252;9.830;2022-11-13T02:23:44;4.43;;;2.50;;
44832;SDS011;30569;51.252;9.830;2022-11-13T02:26:15;5.95;;;2.50;;
44832;SDS011;30569;51.252;9.830;2022-11-13T02:28:43;4.93;;;2.80;;
44832;SDS011;30569;51.252;9.830;2022-11-13T02:31:10;5.07;;;2.47;;
44832;SDS011;30569;51.252;9.830;2022-11-13T02:33:37;4.87;;;2.93;;
44832;SDS011;30569;51.252;9.830;2022-11-13T02:36:03;4.20;;;2.57;;
44832;SDS011;30569;51.252;9.830;2022-11-13T02:38:31;5.57;;;2.50;;
44832;SDS011;30569;51.252;9.830;2022-11-13T02:40:58;4.23;;;2.57;;
44832;SDS011;30569;51.252;9.830;2022-11-13T02:43:24;4.87;;;2.83;;
44832;SDS011;30569;51.252;9.830;2022-11-13T02:45:50;4.90;;;3.40;;
44832;SDS011;30569;51.252;9.830;2022-11-13T02:48:16;4.00;;;2.50;;
44832;SDS011;30569;51.252;9.830;2022-11-13T02:50:42;4.50;;;2.37;;
44832;SDS011;30569;51.252;9.830;2022-11-13T02:53:08;4.70;;;2.37;;
44832;SDS011;30569;51.252;9.830;2022-11-13T02:55:34;4.33;;;2.13;;
44832;SDS011;30569;51.252;9.830;2022-11-13T02:58:00;4.87;;;2.40;;
44832;SDS011;30569;51.252;9.830;2022-11-13T03:00:26;5.47;;;2.23;;
44832;SDS011;30569;51.252;9.830;2022-11-13T03:02:51;6.47;;;2.67;;
44832;SDS011;30569;51.252;9.830;2022-11-13T03:05:17;5.27;;;2.63;;
44832;SDS011;30569;51.252;9.830;2022-11-13T03:07:43;4.87;;;2.40;;
44832;SDS011;30569;51.252;9.830;2022-11-13T03:10:09;4.30;;;2.57;;
44832;SDS011;30569;51.252;9.830;2022-11-13T03:12:36;9.53;;;2.80;;
44832;SDS011;30569;51.252;9.830;2022-11-13T03:15:02;4.37;;;2.37;;
44832;SDS011;30569;51.252;9.830;2022-11-13T03:17:31;3.90;;;2.17;;
44832;SDS011;30569;51.252;9.830;2022-11-13T03:19:57;5.33;;;2.60;;
44832;SDS011;30569;51.252;9.830;2022-11-13T03:22:23;4.13;;;2.57;;
44832;SDS011;30569;51.252;9.830;2022-11-13T03:24:49;4.20;;;2.50;;
44832;SDS011;30569;51.252;9.830;2022-11-13T03:27:14;5.50;;;3.03;;
44832;SDS011;30569;51.252;9.830;2022-11-13T03:29:40;4.40;;;2.77;;
44832;SDS011;30569;51.252;9.830;2022-11-13T03:32:05;4.80;;;2.67;;
44832;SDS011;30569;51.252;9.830;2022-11-13T03:34:31;4.87;;;2.70;;
44832;SDS011;30569;51.252;9.830;2022-11-13T03:36:57;7.00;;;2.57;;
44832;SDS011;30569;51.252;9.830;2022-11-13T03:39:23;5.43;;;3.10;;
44832;SDS011;30569;51.252;9.830;2022-11-13T03:41:49;4.90;;;2.70;;
44832;SDS011;30569;51.252;9.830;2022-11-13T03:44:15;4.33;;;2.40;;
44832;SDS011;30569;51.252;9.830;2022-11-13T03:46:41;4.13;;;2.40;;
44832;SDS011;30569;51.252;9.830;2022-11-13T03:49:07;4.00;;;2.50;;
44832;SDS011;30569;51.252;9.830;2022-11-13T03:51:33;5.47;;;2.50;;
44832;SDS011;30569;51.252;9.830;2022-11-13T03:53:58;5.00;;;2.70;;
44832;SDS011;30569;51.252;9.830;2022-11-13T03:56:24;4.27;;;2.40;;
44832;SDS011;30569;51.252;9.830;2022-11-13T03:58:50;7.00;;;2.37;;
44832;SDS011;30569;51.252;9.830;2022-11-13T04:01:16;5.57;;;2.33;;
44832;SDS011;30569;51.252;9.830;2022-11-13T04:03:42;5.00;;;3.03;;
44832;SDS011;30569;51.252;9.830;2022-11-13T04:06:08;4.93;;;2.53;;
44832;SDS011;30569;51.252;9.830;2022-11-13T04:08:34;4.87;;;2.60;;
44832;SDS011;30569;51.252;9.830;2022-11-13T04:11:10;4.33;;;2.70;;
44832;SDS011;30569;51.252;9.830;2022-11-13T04:13:36;5.13;;;2.90;;
44832;SDS011;30569;51.252;9.830;2022-11-13T04:16:02;4.97;;;2.90;;
44832;SDS011;30569;51.252;9.830;2022-11-13T04:18:28;4.60;;;2.50;;
44832;SDS011;30569;51.252;9.830;2022-11-13T04:21:00;4.83;;;2.60;;
44832;SDS011;30569;51.252;9.830;2022-11-13T04:23:27;4.47;;;2.30;;
44832;SDS011;30569;51.252;9.830;2022-11-13T04:25:53;4.30;;;2.37;;
44832;SDS011;30569;51.252;9.830;2022-11-13T04:28:19;4.10;;;2.30;;
44832;SDS011;30569;51.252;9.830;2022-11-13T04:30:45;6.07;;;3.13;;
44832;SDS011;30569;51.252;9.830;2022-11-13T04:33:11;5.70;;;2.60;;
44832;SDS011;30569;51.252;9.830;2022-11-13T04:35:37;5.37;;;2.40;;
44832;SDS011;30569;51.252;9.830;2022-11-13T04:38:03;4.23;;;2.43;;
44832;SDS011;30569;51.252;9.830;2022-11-13T04:40:29;3.93;;;2.23;;
44832;SDS011;30569;51.252;9.830;2022-11-13T04:42:55;5.47;;;2.87;;
44832;SDS011;30569;51.252;9.830;2022-11-13T04:45:21;4.80;;;2.87;;
44832;SDS011;30569;51.252;9.830;2022-11-13T04:47:48;4.70;;;2.80;;
44832;SDS011;30569;51.252;9.830;2022-11-13T04:50:15;5.13;;;2.87;;
44832;SDS011;30569;51.252;9.830;2022-11-13T04:52:41;5.43;;;2.60;;
44832;SDS011;30569;51.252;9.830;2022-11-13T04:55:07;4.23;;;2.47;;
44832;SDS011;30569;51.252;9.830;2022-11-13T04:57:33;5.67;;;2.50;;
44832;SDS011;30569;51.252;9.830;2022-11-13T04:59:59;4.23;;;2.40;;
44832;SDS011;30569;51.252;9.830;2022-11-13T05:02:25;6.17;;;2.70;;
44832;SDS011;30569;51.252;9.830;2022-11-13T05:04:51;4.70;;;2.47;;
44832;SDS011;30569;51.252;9.830;2022-11-13T05:07:17;3.97;;;2.40;;
44832;SDS011;30569;51.252;9.830;2022-11-13T05:09:43;6.47;;;2.63;;
44832;SDS011;30569;51.252;9.830;2022-11-13T05:12:08;5.07;;;2.33;;
44832;SDS011;30569;51.252;9.830;2022-11-13T05:14:35;4.70;;;2.37;;
44832;SDS011;30569;51.252;9.830;2022-11-13T05:17:01;4.77;;;2.70;;
44832;SDS011;30569;51.252;9.830;2022-11-13T05:19:27;4.80;;;2.80;;
44832;SDS011;30569;51.252;9.830;2022-11-13T05:21:52;6.13;;;2.73;;
44832;SDS011;30569;51.252;9.830;2022-11-13T05:24:18;5.23;;;3.00;;
44832;SDS011;30569;51.252;9.830;2022-11-13T05:26:44;4.43;;;2.43;;
44832;SDS011;30569;51.252;9.830;2022-11-13T05:29:10;5.03;;;2.70;;
44832;SDS011;30569;51.252;9.830;2022-11-13T05:31:35;4.47;;;2.30;;
44832;SDS011;30569;51.252;9.830;2022-11-13T05:34:02;4.00;;;2.27;;
44832;SDS011;30569;51.252;9.830;2022-11-13T05:36:28;5.23;;;2.40;;
44832;SDS011;30569;51.252;9.830;2022-11-13T05:38:54;4.20;;;2.40;;
44832;SDS011;30569;51.252;9.830;2022-11-13T05:41:20;4.53;;;2.60;;
44832;SDS011;30569;51.252;9.830;2022-11-13T05:43:46;5.63;;;2.77;;
44832;SDS011;30569;51.252;9.830;2022-11-13T05:46:14;5.20;;;2.87;;
44832;SDS011;30569;51.252;9.830;2022-11-13T05:48:45;5.07;;;2.30;;
44832;SDS011;30569;51.252;9.830;2022-11-13T05:51:13;5.47;;;2.53;;
44832;SDS011;30569;51.252;9.830;2022-11-13T05:53:43;4.97;;;2.70;;
44832;SDS011;30569;51.252;9.830;2022-11-13T05:58:36;4.87;;;2.83;;
44832;SDS011;30569;51.252;9.830;2022-11-13T06:01:03;5.37;;;2.50;;
44832;SDS011;30569;51.252;9.830;2022-11-13T06:03:34;4.10;;;2.30;;
44832;SDS011;30569;51.252;9.830;2022-11-13T06:06:00;4.70;;;2.40;;
44832;SDS011;30569;51.252;9.830;2022-11-13T06:08:26;4.17;;;2.30;;
44832;SDS011;30569;51.252;9.830;2022-11-13T06:10:52;4.10;;;2.47;;
44832;SDS011;30569;51.252;9.830;2022-11-13T06:13:26;5.67;;;2.30;;
44832;SDS011;30569;51.252;9.830;2022-11-13T06:15:53;4.50;;;2.57;;
44832;SDS011;30569;51.252;9.830;2022-11-13T06:18:20;4.20;;;2.37;;
44832;SDS011;30569;51.252;9.830;2022-11-13T06:20:48;4.57;;;2.43;;
44832;SDS011;30569;51.252;9.830;2022-11-13T06:23:14;4.80;;;2.50;;
44832;SDS011;30569;51.252;9.830;2022-11-13T06:25:40;4.87;;;2.40;;
44832;SDS011;30569;51.252;9.830;2022-11-13T06:28:06;5.43;;;2.77;;
44832;SDS011;30569;51.252;9.830;2022-11-13T06:30:32;5.30;;;3.20;;
44832;SDS011;30569;51.252;9.830;2022-11-13T06:32:57;5.13;;;2.70;;
44832;SDS011;30569;51.252;9.830;2022-11-13T06:35:23;4.57;;;2.77;;
44832;SDS011;30569;51.252;9.830;2022-11-13T06:37:49;4.57;;;2.70;;
44832;SDS011;30569;51.252;9.830;2022-11-13T06:40:15;6.60;;;2.80;;
44832;SDS011;30569;51.252;9.830;2022-11-13T06:42:41;5.30;;;2.80;;
44832;SDS011;30569;51.252;9.830;2022-11-13T06:45:07;5.83;;;2.30;;
44832;SDS011;30569;51.252;9.830;2022-11-13T06:47:32;5.10;;;2.60;;
44832;SDS011;30569;51.252;9.830;2022-11-13T06:49:58;5.30;;;2.80;;
44832;SDS011;30569;51.252;9.830;2022-11-13T06:52:24;12.57;;;4.90;;
44832;SDS011;30569;51.252;9.830;2022-11-13T06:54:49;5.27;;;2.70;;
44832;SDS011;30569;51.252;9.830;2022-11-13T06:57:15;5.00;;;2.57;;
44832;SDS011;30569;51.252;9.830;2022-11-13T06:59:40;4.27;;;2.57;;
44832;SDS011;30569;51.252;9.830;2022-11-13T07:02:07;4.43;;;2.50;;
44832;SDS011;30569;51.252;9.830;2022-11-13T07:04:34;5.80;;;2.60;;
44832;SDS011;30569;51.252;9.830;2022-11-13T07:07:00;4.77;;;2.57;;
44832;SDS011;30569;51.252;9.830;2022-11-13T07:09:27;6.97;;;2.83;;
44832;SDS011;30569;51.252;9.830;2022-11-13T07:11:53;5.47;;;2.93;;
44832;SDS011;30569;51.252;9.830;2022-11-13T07:14:19;5.37;;;3.20;;
44832;SDS011;30569;51.252;9.830;2022-11-13T07:16:44;4.83;;;2.93;;
44832;SDS011;30569;51.252;9.830;2022-11-13T07:19:10;5.83;;;2.50;;
44832;SDS011;30569;51.252;9.830;2022-11-13T07:21:36;5.33;;;2.93;;
44832;SDS011;30569;51.252;9.830;2022-11-13T07:24:02;5.77;;;3.07;;
44832;SDS011;30569;51.252;9.830;2022-11-13T07:26:28;5.70;;;3.30;;
44832;SDS011;30569;51.252;9.830;2022-11-13T07:28:54;5.63;;;3.07;;
44832;SDS011;30569;51.252;9.830;2022-11-13T07:31:20;7.40;;;2.60;;
44832;SDS011;30569;51.252;9.830;2022-11-13T07:33:46;7.77;;;3.17;;
44832;SDS011;30569;51.252;9.830;2022-11-13T07:36:13;5.40;;;3.30;;
44832;SDS011;30569;51.252;9.830;2022-11-13T07:38:38;5.10;;;3.20;;
44832;SDS011;30569;51.252;9.830;2022-11-13T07:41:04;6.73;;;3.90;;
44832;SDS011;30569;51.252;9.830;2022-11-13T07:43:30;5.73;;;3.23;;
44832;SDS011;30569;51.252;9.830;2022-11-13T07:45:56;5.40;;;2.83;;
44832;SDS011;30569;51.252;9.830;2022-11-13T07:48:22;5.80;;;3.37;;
44832;SDS011;30569;51.252;9.830;2022-11-13T07:50:49;5.97;;;3.27;;
44832;SDS011;30569;51.252;9.830;2022-11-13T07:53:15;6.00;;;3.70;;
44832;SDS011;30569;51.252;9.830;2022-11-13T07:55:41;11.60;;;7.07;;
44832;SDS011;30569;51.252;9.830;2022-11-13T07:58:07;9.73;;;6.50;;
44832;SDS011;30569;51.252;9.830;2022-11-13T08:00:33;10.50;;;6.03;;
44832;SDS011;30569;51.252;9.830;2022-11-13T08:03:10;6.67;;;3.80;;
44832;SDS011;30569;51.252;9.830;2022-11-13T08:05:38;5.97;;;3.40;;
44832;SDS011;30569;51.252;9.830;2022-11-13T08:08:05;11.63;;;5.20;;
44832;SDS011;30569;51.252;9.830;2022-11-13T08:10:31;12.27;;;7.00;;
44832;SDS011;30569;51.252;9.830;2022-11-13T08:12:58;13.63;;;8.33;;
44832;SDS011;30569;51.252;9.830;2022-11-13T08:15:25;15.50;;;9.37;;
44832;SDS011;30569;51.252;9.830;2022-11-13T08:17:53;17.50;;;11.00;;
44832;SDS011;30569;51.252;9.830;2022-11-13T08:20:20;13.20;;;8.53;;
44832;SDS011;30569;51.252;9.830;2022-11-13T08:22:46;11.10;;;7.20;;
44832;SDS011;30569;51.252;9.830;2022-11-13T08:25:12;10.23;;;4.07;;
44832;SDS011;30569;51.252;9.830;2022-11-13T08:27:38;6.97;;;3.77;;
44832;SDS011;30569;51.252;9.830;2022-11-13T08:30:03;7.87;;;4.40;;
44832;SDS011;30569;51.252;9.830;2022-11-13T08:32:29;8.67;;;4.77;;
44832;SDS011;30569;51.252;9.830;2022-11-13T08:34:55;7.93;;;4.53;;
44832;SDS011;30569;51.252;9.830;2022-11-13T08:37:21;9.73;;;4.37;;
44832;SDS011;30569;51.252;9.830;2022-11-13T08:39:46;7.00;;;4.03;;
44832;SDS011;30569;51.252;9.830;2022-11-13T08:42:12;7.00;;;4.20;;
44832;SDS011;30569;51.252;9.830;2022-11-13T08:44:38;7.70;;;4.37;;
44832;SDS011;30569;51.252;9.830;2022-11-13T08:47:04;9.70;;;4.60;;
44832;SDS011;30569;51.252;9.830;2022-11-13T08:49:30;10.57;;;4.67;;
44832;SDS011;30569;51.252;9.830;2022-11-13T08:51:55;9.90;;;4.77;;
44832;SDS011;30569;51.252;9.830;2022-11-13T08:54:21;6.83;;;4.20;;
44832;SDS011;30569;51.252;9.830;2022-11-13T08:56:47;8.00;;;4.23;;
44832;SDS011;30569;51.252;9.830;2022-11-13T08:59:14;9.30;;;5.83;;
44832;SDS011;30569;51.252;9.830;2022-11-13T09:01:39;9.90;;;5.80;;
44832;SDS011;30569;51.252;9.830;2022-11-13T09:04:05;11.33;;;6.10;;
44832;SDS011;30569;51.252;9.830;2022-11-13T09:06:31;14.73;;;5.90;;
44832;SDS011;30569;51.252;9.830;2022-11-13T09:08:57;8.13;;;4.87;;
44832;SDS011;30569;51.252;9.830;2022-11-13T09:11:23;7.87;;;4.73;;
44832;SDS011;30569;51.252;9.830;2022-11-13T09:13:51;6.93;;;4.43;;
44832;SDS011;30569;51.252;9.830;2022-11-13T09:16:18;6.90;;;4.10;;
44832;SDS011;30569;51.252;9.830;2022-11-13T09:18:44;11.40;;;4.10;;
44832;SDS011;30569;51.252;9.830;2022-11-13T09:21:09;6.93;;;3.43;;
44832;SDS011;30569;51.252;9.830;2022-11-13T09:23:35;5.33;;;3.13;;
44832;SDS011;30569;51.252;9.830;2022-11-13T09:26:00;6.93;;;3.60;;
44832;SDS011;30569;51.252;9.830;2022-11-13T09:28:27;9.53;;;3.37;;
44832;SDS011;30569;51.252;9.830;2022-11-13T09:30:53;6.47;;;3.20;;
44832;SDS011;30569;51.252;9.830;2022-11-13T09:33:18;7.90;;;4.40;;
44832;SDS011;30569;51.252;9.830;2022-11-13T09:35:44;7.33;;;4.10;;
44832;SDS011;30569;51.252;9.830;2022-11-13T09:38:14;7.60;;;4.20;;
44832;SDS011;30569;51.252;9.830;2022-11-13T09:40:53;7.23;;;3.63;;
44832;SDS011;30569;51.252;9.830;2022-11-13T09:46:03;5.90;;;3.30;;
44832;SDS011;30569;51.252;9.830;2022-11-13T09:48:36;7.00;;;3.93;;
44832;SDS011;30569;51.252;9.830;2022-11-13T09:51:05;7.30;;;4.30;;
44832;SDS011;30569;51.252;9.830;2022-11-13T09:53:42;10.55;;;4.85;;
44832;SDS011;30569;51.252;9.830;2022-11-13T09:56:23;8.65;;;4.57;;
44832;SDS011;30569;51.252;9.830;2022-11-13T10:07:47;6.82;;;3.92;;
44832;SDS011;30569;51.252;9.830;2022-11-13T10:12:51;9.80;;;4.07;;
44832;SDS011;30569;51.252;9.830;2022-11-13T10:15:19;6.72;;;3.83;;
44832;SDS011;30569;51.252;9.830;2022-11-13T10:18:19;9.55;;;4.22;;
44832;SDS011;30569;51.252;9.830;2022-11-13T10:20:50;7.07;;;3.97;;
44832;SDS011;30569;51.252;9.830;2022-11-13T10:23:31;7.68;;;4.03;;
44832;SDS011;30569;51.252;9.830;2022-11-13T10:26:06;7.28;;;4.50;;
44832;SDS011;30569;51.252;9.830;2022-11-13T10:28:38;8.35;;;3.90;;
44832;SDS011;30569;51.252;9.830;2022-11-13T10:31:07;6.82;;;4.25;;
44832;SDS011;30569;51.252;9.830;2022-11-13T10:33:34;7.80;;;4.60;;
44832;SDS011;30569;51.252;9.830;2022-11-13T10:38:57;7.93;;;4.68;;
44832;SDS011;30569;51.252;9.830;2022-11-13T10:41:27;8.15;;;4.80;;
44832;SDS011;30569;51.252;9.830;2022-11-13T10:44:35;8.55;;;4.95;;
44832;SDS011;30569;51.252;9.830;2022-11-13T10:46:46;17.10;;;10.32;;
44832;SDS011;30569;51.252;9.830;2022-11-13T10:49:19;16.75;;;10.48;;
44832;SDS011;30569;51.252;9.830;2022-11-13T10:51:53;14.45;;;7.70;;
44832;SDS011;30569;51.252;9.830;2022-11-13T10:54:22;17.50;;;10.18;;
44832;SDS011;30569;51.252;9.830;2022-11-13T10:56:55;11.73;;;7.35;;
44832;SDS011;30569;51.252;9.830;2022-11-13T10:59:22;10.88;;;6.43;;
44832;SDS011;30569;51.252;9.830;2022-11-13T11:01:49;18.95;;;10.25;;
44832;SDS011;30569;51.252;9.830;2022-11-13T11:06:51;21.95;;;11.32;;
44832;SDS011;30569;51.252;9.830;2022-11-13T11:09:20;12.77;;;7.65;;
44832;SDS011;30569;51.252;9.830;2022-11-13T11:12:07;11.77;;;7.18;;
44832;SDS011;30569;51.252;9.830;2022-11-13T11:17:21;11.50;;;6.38;;
44832;SDS011;30569;51.252;9.830;2022-11-13T11:19:54;8.63;;;5.03;;
44832;SDS011;30569;51.252;9.830;2022-11-13T11:22:40;8.45;;;5.00;;
44832;SDS011;30569;51.252;9.830;2022-11-13T11:25:10;13.02;;;4.70;;
44832;SDS011;30569;51.252;9.830;2022-11-13T11:27:47;9.70;;;4.97;;
44832;SDS011;30569;51.252;9.830;2022-11-13T11:30:28;7.57;;;3.35;;
44832;SDS011;30569;51.252;9.830;2022-11-13T11:33:03;6.57;;;3.25;;
44832;SDS011;30569;51.252;9.830;2022-11-13T11:41:43;7.45;;;3.55;;
44832;SDS011;30569;51.252;9.830;2022-11-13T11:44:15;7.28;;;4.10;;
44832;SDS011;30569;51.252;9.830;2022-11-13T11:46:46;8.10;;;3.60;;
44832;SDS011;30569;51.252;9.830;2022-11-13T11:49:12;13.93;;;5.47;;
44832;SDS011;30569;51.252;9.830;2022-11-13T11:52:02;6.05;;;3.05;;
44832;SDS011;30569;51.252;9.830;2022-11-13T11:54:29;13.38;;;5.03;;
44832;SDS011;30569;51.252;9.830;2022-11-13T11:57:11;10.48;;;3.65;;
44832;SDS011;30569;51.252;9.830;2022-11-13T12:00:07;9.38;;;4.78;;
44832;SDS011;30569;51.252;9.830;2022-11-13T12:02:50;12.93;;;7.13;;
44832;SDS011;30569;51.252;9.830;2022-11-13T12:05:47;7.75;;;2.97;;
44832;SDS011;30569;51.252;9.830;2022-11-13T12:08:45;4.03;;;1.50;;
44832;SDS011;30569;51.252;9.830;2022-11-13T12:16:35;3.58;;;1.30;;
44832;SDS011;30569;51.252;9.830;2022-11-13T12:19:14;3.33;;;1.40;;
44832;SDS011;30569;51.252;9.830;2022-11-13T12:22:02;4.05;;;1.80;;
44832;SDS011;30569;51.252;9.830;2022-11-13T12:27:30;4.57;;;1.80;;
44832;SDS011;30569;51.252;9.830;2022-11-13T12:30:10;3.78;;;1.70;;
44832;SDS011;30569;51.252;9.830;2022-11-13T12:35:25;3.63;;;1.60;;
44832;SDS011;30569;51.252;9.830;2022-11-13T12:37:57;4.68;;;2.35;;
44832;SDS011;30569;51.252;9.830;2022-11-13T12:43:39;4.20;;;1.95;;
44832;SDS011;30569;51.252;9.830;2022-11-13T12:46:16;4.32;;;1.73;;
44832;SDS011;30569;51.252;9.830;2022-11-13T12:48:43;4.30;;;1.98;;
44832;SDS011;30569;51.252;9.830;2022-11-13T12:51:11;5.63;;;1.90;;
44832;SDS011;30569;51.252;9.830;2022-11-13T12:53:48;4.07;;;1.80;;
44832;SDS011;30569;51.252;9.830;2022-11-13T12:58:52;5.50;;;1.70;;
44832;SDS011;30569;51.252;9.830;2022-11-13T13:01:46;3.85;;;1.80;;
44832;SDS011;30569;51.252;9.830;2022-11-13T13:07:38;4.43;;;1.80;;
44832;SDS011;30569;51.252;9.830;2022-11-13T13:15:52;3.60;;;1.70;;
44832;SDS011;30569;51.252;9.830;2022-11-13T13:21:07;5.57;;;2.30;;
44832;SDS011;30569;51.252;9.830;2022-11-13T13:23:34;4.50;;;1.98;;
44832;SDS011;30569;51.252;9.830;2022-11-13T13:28:50;3.42;;;1.50;;
44832;SDS011;30569;51.252;9.830;2022-11-13T13:31:22;4.18;;;1.80;;
44832;SDS011;30569;51.252;9.830;2022-11-13T13:37:00;3.20;;;1.50;;
44832;SDS011;30569;51.252;9.830;2022-11-13T13:48:01;3.40;;;1.58;;
44832;SDS011;30569;51.252;9.830;2022-11-13T13:50:32;4.43;;;1.80;;
44832;SDS011;30569;51.252;9.830;2022-11-13T13:53:03;3.92;;;1.52;;
44832;SDS011;30569;51.252;9.830;2022-11-13T13:57:55;3.60;;;1.75;;
44832;SDS011;30569;51.252;9.830;2022-11-13T14:00:21;3.33;;;1.48;;
44832;SDS011;30569;51.252;9.830;2022-11-13T14:02:48;4.53;;;1.70;;
44832;SDS011;30569;51.252;9.830;2022-11-13T14:05:26;3.20;;;1.50;;
44832;SDS011;30569;51.252;9.830;2022-11-13T14:07:56;3.50;;;1.65;;
44832;SDS011;30569;51.252;9.830;2022-11-13T14:10:23;4.07;;;1.70;;
44832;SDS011;30569;51.252;9.830;2022-11-13T14:12:51;3.70;;;1.65;;
44832;SDS011;30569;51.252;9.830;2022-11-13T14:17:48;4.57;;;1.70;;
44832;SDS011;30569;51.252;9.830;2022-11-13T14:20:14;3.63;;;1.80;;
44832;SDS011;30569;51.252;9.830;2022-11-13T14:22:40;4.72;;;1.90;;
44832;SDS011;30569;51.252;9.830;2022-11-13T14:25:20;5.40;;;2.03;;
44832;SDS011;30569;51.252;9.830;2022-11-13T14:27:48;3.95;;;1.88;;
44832;SDS011;30569;51.252;9.830;2022-11-13T14:30:25;4.90;;;2.20;;
44832;SDS011;30569;51.252;9.830;2022-11-13T14:32:52;3.70;;;1.88;;
44832;SDS011;30569;51.252;9.830;2022-11-13T14:35:20;3.90;;;1.85;;
44832;SDS011;30569;51.252;9.830;2022-11-13T14:37:47;4.30;;;1.90;;
44832;SDS011;30569;51.252;9.830;2022-11-13T14:40:22;4.85;;;2.15;;
44832;SDS011;30569;51.252;9.830;2022-11-13T14:42:57;4.28;;;2.00;;
44832;SDS011;30569;51.252;9.830;2022-11-13T14:45:28;4.80;;;2.00;;
44832;SDS011;30569;51.252;9.830;2022-11-13T14:50:30;4.15;;;2.00;;
44832;SDS011;30569;51.252;9.830;2022-11-13T14:53:04;4.18;;;1.80;;
44832;SDS011;30569;51.252;9.830;2022-11-13T14:55:36;4.10;;;1.95;;
44832;SDS011;30569;51.252;9.830;2022-11-13T14:58:03;4.35;;;1.92;;
44832;SDS011;30569;51.252;9.830;2022-11-13T15:00:33;4.00;;;1.90;;
44832;SDS011;30569;51.252;9.830;2022-11-13T15:03:01;3.88;;;1.77;;
44832;SDS011;30569;51.252;9.830;2022-11-13T15:05:28;3.95;;;1.60;;
44832;SDS011;30569;51.252;9.830;2022-11-13T15:07:54;3.88;;;1.70;;
44832;SDS011;30569;51.252;9.830;2022-11-13T15:10:22;4.80;;;1.80;;
44832;SDS011;30569;51.252;9.830;2022-11-13T15:12:49;5.00;;;2.17;;
44832;SDS011;30569;51.252;9.830;2022-11-13T15:15:19;3.95;;;1.80;;
44832;SDS011;30569;51.252;9.830;2022-11-13T15:17:48;5.20;;;2.42;;
44832;SDS011;30569;51.252;9.830;2022-11-13T15:20:16;4.38;;;2.45;;
44832;SDS011;30569;51.252;9.830;2022-11-13T15:22:45;4.28;;;1.95;;
44832;SDS011;30569;51.252;9.830;2022-11-13T15:25:14;3.72;;;1.85;;
44832;SDS011;30569;51.252;9.830;2022-11-13T15:27:42;4.88;;;2.42;;
44832;SDS011;30569;51.252;9.830;2022-11-13T15:30:07;5.50;;;2.00;;
44832;SDS011;30569;51.252;9.830;2022-11-13T15:32:33;4.45;;;1.95;;
44832;SDS011;30569;51.252;9.830;2022-11-13T15:34:59;4.57;;;2.08;;
44832;SDS011;30569;51.252;9.830;2022-11-13T15:37:24;3.97;;;1.70;;
44832;SDS011;30569;51.252;9.830;2022-11-13T15:39:50;4.45;;;2.15;;
44832;SDS011;30569;51.252;9.830;2022-11-13T15:42:17;4.03;;;2.08;;
44832;SDS011;30569;51.252;9.830;2022-11-13T15:44:51;5.13;;;2.25;;
44832;SDS011;30569;51.252;9.830;2022-11-13T15:47:30;6.03;;;2.13;;
44832;SDS011;30569;51.252;9.830;2022-11-13T15:49:57;5.40;;;2.40;;
44832;SDS011;30569;51.252;9.830;2022-11-13T15:52:23;3.72;;;1.92;;
44832;SDS011;30569;51.252;9.830;2022-11-13T15:54:50;6.82;;;2.60;;
44832;SDS011;30569;51.252;9.830;2022-11-13T15:57:18;4.55;;;2.50;;
44832;SDS011;30569;51.252;9.830;2022-11-13T15:59:48;4.35;;;2.38;;
44832;SDS011;30569;51.252;9.830;2022-11-13T16:02:14;4.78;;;2.30;;
44832;SDS011;30569;51.252;9.830;2022-11-13T16:04:41;5.07;;;2.35;;
44832;SDS011;30569;51.252;9.830;2022-11-13T16:07:16;3.70;;;2.00;;
44832;SDS011;30569;51.252;9.830;2022-11-13T16:09:45;4.55;;;2.20;;
44832;SDS011;30569;51.252;9.830;2022-11-13T16:12:11;4.00;;;2.00;;
44832;SDS011;30569;51.252;9.830;2022-11-13T16:14:37;3.90;;;2.00;;